sensor_id;sensor_type;location;lat;lon;timestamp;temperature;humidity
67005;HTU21D;53920;51.094;5.902;2023-03-19T00:01:59;12.04;75.36
67005;HTU21D;53920;51.094;5.902;2023-03-19T00:04:25;11.93;75.83
67005;HTU21D;53920;51.094;5.902;2023-03-19T00:06:51;11.85;76.10
67005;HTU21D;53920;51.094;5.902;2023-03-19T00:09:19;11.77;76.34
67005;HTU21D;53920;51.094;5.902;2023-03-19T00:11:46;11.70;76.76
67005;HTU21D;53920;51.094;5.902;2023-03-19T00:14:11;11.60;77.03
67005;HTU21D;53920;51.094;5.902;2023-03-19T00:16:37;11.51;77.11
67005;HTU21D;53920;51.094;5.902;2023-03-19T00:19:04;11.47;76.85
67005;HTU21D;53920;51.094;5.902;2023-03-19T00:21:30;11.47;76.60
67005;HTU21D;53920;51.094;5.902;2023-03-19T00:23:57;11.54;76.37
67005;HTU21D;53920;51.094;5.902;2023-03-19T00:26:27;11.56;75.98
67005;HTU21D;53920;51.094;5.902;2023-03-19T00:28:54;11.61;75.36
67005;HTU21D;53920;51.094;5.902;2023-03-19T00:31:20;11.61;75.04
67005;HTU21D;53920;51.094;5.902;2023-03-19T00:33:47;11.60;74.60
67005;HTU21D;53920;51.094;5.902;2023-03-19T00:36:14;11.61;74.47
67005;HTU21D;53920;51.094;5.902;2023-03-19T00:38:42;11.61;74.18
67005;HTU21D;53920;51.094;5.902;2023-03-19T00:41:10;11.62;74.27
67005;HTU21D;53920;51.094;5.902;2023-03-19T00:43:36;11.67;73.99
67005;HTU21D;53920;51.094;5.902;2023-03-19T00:46:02;11.71;73.69
67005;HTU21D;53920;51.094;5.902;2023-03-19T00:48:28;11.78;73.42
67005;HTU21D;53920;51.094;5.902;2023-03-19T00:50:54;11.84;73.25
67005;HTU21D;53920;51.094;5.902;2023-03-19T00:53:20;11.88;73.06
67005;HTU21D;53920;51.094;5.902;2023-03-19T00:55:46;11.90;73.00
67005;HTU21D;53920;51.094;5.902;2023-03-19T00:58:12;11.90;72.95
67005;HTU21D;53920;51.094;5.902;2023-03-19T01:00:38;11.91;72.99
67005;HTU21D;53920;51.094;5.902;2023-03-19T01:03:05;11.93;72.99
67005;HTU21D;53920;51.094;5.902;2023-03-19T01:05:33;11.96;72.84
67005;HTU21D;53920;51.094;5.902;2023-03-19T01:07:59;11.96;72.96
67005;HTU21D;53920;51.094;5.902;2023-03-19T01:10:25;12.03;72.77
67005;HTU21D;53920;51.094;5.902;2023-03-19T01:12:51;12.05;72.74
67005;HTU21D;53920;51.094;5.902;2023-03-19T01:15:18;12.12;72.64
67005;HTU21D;53920;51.094;5.902;2023-03-19T01:17:44;12.18;72.49
67005;HTU21D;53920;51.094;5.902;2023-03-19T01:20:11;12.28;72.16
67005;HTU21D;53920;51.094;5.902;2023-03-19T01:22:44;12.34;71.96
67005;HTU21D;53920;51.094;5.902;2023-03-19T01:25:12;12.34;71.90
67005;HTU21D;53920;51.094;5.902;2023-03-19T01:27:43;12.38;71.83
67005;HTU21D;53920;51.094;5.902;2023-03-19T01:30:10;12.38;71.97
67005;HTU21D;53920;51.094;5.902;2023-03-19T01:33:08;12.32;72.19
67005;HTU21D;53920;51.094;5.902;2023-03-19T01:35:41;12.31;72.25
67005;HTU21D;53920;51.094;5.902;2023-03-19T01:38:08;12.28;72.33
67005;HTU21D;53920;51.094;5.902;2023-03-19T01:40:35;12.28;72.26
67005;HTU21D;53920;51.094;5.902;2023-03-19T01:46:27;12.23;72.30
67005;HTU21D;53920;51.094;5.902;2023-03-19T01:49:25;12.17;72.48
67005;HTU21D;53920;51.094;5.902;2023-03-19T01:52:08;12.16;72.48
67005;HTU21D;53920;51.094;5.902;2023-03-19T01:54:52;12.14;72.39
67005;HTU21D;53920;51.094;5.902;2023-03-19T01:57:45;12.14;72.35
67005;HTU21D;53920;51.094;5.902;2023-03-19T02:00:29;12.12;72.28
67005;HTU21D;53920;51.094;5.902;2023-03-19T02:02:59;12.07;72.35
67005;HTU21D;53920;51.094;5.902;2023-03-19T02:05:44;12.01;72.51
67005;HTU21D;53920;51.094;5.902;2023-03-19T02:08:15;12.00;72.52
67005;HTU21D;53920;51.094;5.902;2023-03-19T02:10:45;11.97;72.46
67005;HTU21D;53920;51.094;5.902;2023-03-19T02:13:13;11.96;72.45
67005;HTU21D;53920;51.094;5.902;2023-03-19T02:15:40;11.94;72.47
67005;HTU21D;53920;51.094;5.902;2023-03-19T02:18:07;11.94;72.38
67005;HTU21D;53920;51.094;5.902;2023-03-19T02:20:48;11.93;72.32
67005;HTU21D;53920;51.094;5.902;2023-03-19T02:26:16;12.01;72.01
67005;HTU21D;53920;51.094;5.902;2023-03-19T02:28:48;12.05;71.96
67005;HTU21D;53920;51.094;5.902;2023-03-19T02:31:19;12.14;71.69
67005;HTU21D;53920;51.094;5.902;2023-03-19T02:36:49;12.25;71.31
67005;HTU21D;53920;51.094;5.902;2023-03-19T02:42:26;12.35;71.02
67005;HTU21D;53920;51.094;5.902;2023-03-19T02:44:53;12.43;70.84
67005;HTU21D;53920;51.094;5.902;2023-03-19T02:47:19;12.47;70.79
67005;HTU21D;53920;51.094;5.902;2023-03-19T02:49:45;12.55;70.48
67005;HTU21D;53920;51.094;5.902;2023-03-19T02:52:12;12.57;70.47
67005;HTU21D;53920;51.094;5.902;2023-03-19T02:54:39;12.56;70.64
67005;HTU21D;53920;51.094;5.902;2023-03-19T02:57:05;12.60;70.58
67005;HTU21D;53920;51.094;5.902;2023-03-19T02:59:31;12.64;70.46
67005;HTU21D;53920;51.094;5.902;2023-03-19T03:01:58;12.70;70.25
67005;HTU21D;53920;51.094;5.902;2023-03-19T03:04:24;12.76;70.11
67005;HTU21D;53920;51.094;5.902;2023-03-19T03:06:51;12.78;69.92
67005;HTU21D;53920;51.094;5.902;2023-03-19T03:09:18;12.82;69.73
67005;HTU21D;53920;51.094;5.902;2023-03-19T03:11:44;12.75;70.26
67005;HTU21D;53920;51.094;5.902;2023-03-19T03:14:11;12.30;73.01
67005;HTU21D;53920;51.094;5.902;2023-03-19T03:16:37;11.98;75.05
67005;HTU21D;53920;51.094;5.902;2023-03-19T03:19:03;11.79;76.40
67005;HTU21D;53920;51.094;5.902;2023-03-19T03:21:30;11.60;77.30
67005;HTU21D;53920;51.094;5.902;2023-03-19T03:23:55;11.51;77.94
67005;HTU21D;53920;51.094;5.902;2023-03-19T03:26:22;11.45;78.09
67005;HTU21D;53920;51.094;5.902;2023-03-19T03:28:48;11.47;78.11
67005;HTU21D;53920;51.094;5.902;2023-03-19T03:31:15;11.44;78.27
67005;HTU21D;53920;51.094;5.902;2023-03-19T03:33:41;11.52;77.92
67005;HTU21D;53920;51.094;5.902;2023-03-19T03:36:07;11.56;77.76
67005;HTU21D;53920;51.094;5.902;2023-03-19T03:38:33;11.60;77.45
67005;HTU21D;53920;51.094;5.902;2023-03-19T03:40:59;11.69;77.09
67005;HTU21D;53920;51.094;5.902;2023-03-19T03:43:26;11.70;77.16
67005;HTU21D;53920;51.094;5.902;2023-03-19T03:45:52;11.72;77.05
67005;HTU21D;53920;51.094;5.902;2023-03-19T03:48:18;11.71;77.02
67005;HTU21D;53920;51.094;5.902;2023-03-19T03:50:44;11.73;76.97
67005;HTU21D;53920;51.094;5.902;2023-03-19T03:53:14;11.62;77.89
67005;HTU21D;53920;51.094;5.902;2023-03-19T03:55:41;11.53;78.66
67005;HTU21D;53920;51.094;5.902;2023-03-19T03:58:07;11.41;79.65
67005;HTU21D;53920;51.094;5.902;2023-03-19T04:00:34;11.36;80.35
67005;HTU21D;53920;51.094;5.902;2023-03-19T04:03:00;11.31;80.77
67005;HTU21D;53920;51.094;5.902;2023-03-19T04:05:26;11.29;81.22
67005;HTU21D;53920;51.094;5.902;2023-03-19T04:07:52;11.31;81.47
67005;HTU21D;53920;51.094;5.902;2023-03-19T04:10:18;11.34;81.62
67005;HTU21D;53920;51.094;5.902;2023-03-19T04:12:45;11.34;81.81
67005;HTU21D;53920;51.094;5.902;2023-03-19T04:15:14;11.37;81.97
67005;HTU21D;53920;51.094;5.902;2023-03-19T04:17:43;11.39;81.95
67005;HTU21D;53920;51.094;5.902;2023-03-19T04:20:10;11.37;82.01
67005;HTU21D;53920;51.094;5.902;2023-03-19T04:22:37;11.36;82.04
67005;HTU21D;53920;51.094;5.902;2023-03-19T04:25:04;11.34;82.18
67005;HTU21D;53920;51.094;5.902;2023-03-19T04:27:30;11.31;82.35
67005;HTU21D;53920;51.094;5.902;2023-03-19T04:29:56;11.31;82.42
67005;HTU21D;53920;51.094;5.902;2023-03-19T04:32:22;11.32;82.52
67005;HTU21D;53920;51.094;5.902;2023-03-19T04:34:50;11.31;82.65
67005;HTU21D;53920;51.094;5.902;2023-03-19T04:37:17;11.31;82.81
67005;HTU21D;53920;51.094;5.902;2023-03-19T04:39:47;11.34;82.77
67005;HTU21D;53920;51.094;5.902;2023-03-19T04:42:13;11.36;82.72
67005;HTU21D;53920;51.094;5.902;2023-03-19T04:44:55;11.34;82.91
67005;HTU21D;53920;51.094;5.902;2023-03-19T04:47:22;11.39;82.77
67005;HTU21D;53920;51.094;5.902;2023-03-19T04:49:54;11.41;82.65
67005;HTU21D;53920;51.094;5.902;2023-03-19T04:52:22;11.42;82.68
67005;HTU21D;53920;51.094;5.902;2023-03-19T04:54:50;11.44;82.75
67005;HTU21D;53920;51.094;5.902;2023-03-19T04:57:16;11.47;82.71
67005;HTU21D;53920;51.094;5.902;2023-03-19T04:59:44;11.47;82.58
67005;HTU21D;53920;51.094;5.902;2023-03-19T05:02:13;11.49;82.46
67005;HTU21D;53920;51.094;5.902;2023-03-19T05:04:40;11.51;82.25
67005;HTU21D;53920;51.094;5.902;2023-03-19T05:07:10;11.49;82.20
67005;HTU21D;53920;51.094;5.902;2023-03-19T05:09:36;11.49;82.35
67005;HTU21D;53920;51.094;5.902;2023-03-19T05:12:02;11.44;82.55
67005;HTU21D;53920;51.094;5.902;2023-03-19T05:14:34;11.43;82.75
67005;HTU21D;53920;51.094;5.902;2023-03-19T05:17:06;11.41;82.84
67005;HTU21D;53920;51.094;5.902;2023-03-19T05:19:50;11.41;82.81
67005;HTU21D;53920;51.094;5.902;2023-03-19T05:22:20;11.41;83.00
67005;HTU21D;53920;51.094;5.902;2023-03-19T05:24:46;11.46;82.89
67005;HTU21D;53920;51.094;5.902;2023-03-19T05:27:12;11.47;82.95
67005;HTU21D;53920;51.094;5.902;2023-03-19T05:30:08;11.53;83.00
67005;HTU21D;53920;51.094;5.902;2023-03-19T05:32:55;11.56;83.04
67005;HTU21D;53920;51.094;5.902;2023-03-19T05:35:31;11.59;82.95
67005;HTU21D;53920;51.094;5.902;2023-03-19T05:37:58;11.59;82.91
67005;HTU21D;53920;51.094;5.902;2023-03-19T05:40:24;11.57;82.87
67005;HTU21D;53920;51.094;5.902;2023-03-19T05:42:51;11.57;82.84
67005;HTU21D;53920;51.094;5.902;2023-03-19T05:45:20;11.58;82.76
67005;HTU21D;53920;51.094;5.902;2023-03-19T05:47:50;11.56;82.74
67005;HTU21D;53920;51.094;5.902;2023-03-19T05:50:18;11.54;82.81
67005;HTU21D;53920;51.094;5.902;2023-03-19T05:53:03;11.56;82.75
67005;HTU21D;53920;51.094;5.902;2023-03-19T05:55:29;11.56;82.75
67005;HTU21D;53920;51.094;5.902;2023-03-19T05:58:03;11.58;82.62
67005;HTU21D;53920;51.094;5.902;2023-03-19T06:00:29;11.57;82.65
67005;HTU21D;53920;51.094;5.902;2023-03-19T06:02:55;11.57;82.52
67005;HTU21D;53920;51.094;5.902;2023-03-19T06:05:34;11.54;82.55
67005;HTU21D;53920;51.094;5.902;2023-03-19T06:08:08;11.56;82.68
67005;HTU21D;53920;51.094;5.902;2023-03-19T06:10:54;11.58;82.65
67005;HTU21D;53920;51.094;5.902;2023-03-19T06:13:21;11.61;82.56
67005;HTU21D;53920;51.094;5.902;2023-03-19T06:15:56;11.61;82.63
67005;HTU21D;53920;51.094;5.902;2023-03-19T06:18:34;11.66;82.66
67005;HTU21D;53920;51.094;5.902;2023-03-19T06:21:06;11.70;82.47
67005;HTU21D;53920;51.094;5.902;2023-03-19T06:23:32;11.76;82.48
67005;HTU21D;53920;51.094;5.902;2023-03-19T06:26:00;11.85;82.33
67005;HTU21D;53920;51.094;5.902;2023-03-19T06:28:31;11.93;82.22
67005;HTU21D;53920;51.094;5.902;2023-03-19T06:30:57;12.01;82.17
67005;HTU21D;53920;51.094;5.902;2023-03-19T06:33:43;12.04;82.06
67005;HTU21D;53920;51.094;5.902;2023-03-19T06:36:09;12.10;82.04
67005;HTU21D;53920;51.094;5.902;2023-03-19T06:38:35;12.10;81.84
67005;HTU21D;53920;51.094;5.902;2023-03-19T06:41:02;12.13;81.78
67005;HTU21D;53920;51.094;5.902;2023-03-19T06:43:28;12.16;81.46
67005;HTU21D;53920;51.094;5.902;2023-03-19T06:45:54;12.15;81.30
67005;HTU21D;53920;51.094;5.902;2023-03-19T06:48:20;12.07;81.33
67005;HTU21D;53920;51.094;5.902;2023-03-19T06:50:46;12.05;81.30
67005;HTU21D;53920;51.094;5.902;2023-03-19T06:53:13;12.05;80.98
67005;HTU21D;53920;51.094;5.902;2023-03-19T06:55:39;12.02;80.95
67005;HTU21D;53920;51.094;5.902;2023-03-19T06:58:05;12.04;80.78
67005;HTU21D;53920;51.094;5.902;2023-03-19T07:00:32;12.05;80.48
67005;HTU21D;53920;51.094;5.902;2023-03-19T07:02:58;12.11;80.41
67005;HTU21D;53920;51.094;5.902;2023-03-19T07:05:24;12.12;80.20
67005;HTU21D;53920;51.094;5.902;2023-03-19T07:07:50;12.12;79.95
67005;HTU21D;53920;51.094;5.902;2023-03-19T07:10:18;12.12;79.85
67005;HTU21D;53920;51.094;5.902;2023-03-19T07:12:44;12.15;79.62
67005;HTU21D;53920;51.094;5.902;2023-03-19T07:15:10;12.17;79.56
67005;HTU21D;53920;51.094;5.902;2023-03-19T07:17:37;12.20;79.43
67005;HTU21D;53920;51.094;5.902;2023-03-19T07:20:03;12.21;79.25
67005;HTU21D;53920;51.094;5.902;2023-03-19T07:22:29;12.23;79.02
67005;HTU21D;53920;51.094;5.902;2023-03-19T07:24:55;12.21;79.11
67005;HTU21D;53920;51.094;5.902;2023-03-19T07:27:21;12.26;78.92
67005;HTU21D;53920;51.094;5.902;2023-03-19T07:29:47;12.28;79.11
67005;HTU21D;53920;51.094;5.902;2023-03-19T07:32:14;12.32;78.94
67005;HTU21D;53920;51.094;5.902;2023-03-19T07:34:40;12.31;79.04
67005;HTU21D;53920;51.094;5.902;2023-03-19T07:37:06;12.26;79.20
67005;HTU21D;53920;51.094;5.902;2023-03-19T07:39:32;12.25;79.43
67005;HTU21D;53920;51.094;5.902;2023-03-19T07:41:58;12.23;79.46
67005;HTU21D;53920;51.094;5.902;2023-03-19T07:44:24;12.29;79.53
67005;HTU21D;53920;51.094;5.902;2023-03-19T07:46:50;12.34;79.34
67005;HTU21D;53920;51.094;5.902;2023-03-19T07:49:16;12.43;79.17
67005;HTU21D;53920;51.094;5.902;2023-03-19T07:51:42;12.50;79.01
67005;HTU21D;53920;51.094;5.902;2023-03-19T07:54:08;12.52;78.95
67005;HTU21D;53920;51.094;5.902;2023-03-19T07:56:35;12.56;78.86
67005;HTU21D;53920;51.094;5.902;2023-03-19T07:59:01;12.63;78.35
67005;HTU21D;53920;51.094;5.902;2023-03-19T08:01:27;12.64;78.37
67005;HTU21D;53920;51.094;5.902;2023-03-19T08:03:53;12.66;78.52
67005;HTU21D;53920;51.094;5.902;2023-03-19T08:06:19;12.70;78.40
67005;HTU21D;53920;51.094;5.902;2023-03-19T08:08:45;12.65;78.65
67005;HTU21D;53920;51.094;5.902;2023-03-19T08:11:11;12.75;78.66
67005;HTU21D;53920;51.094;5.902;2023-03-19T08:13:37;12.93;78.24
67005;HTU21D;53920;51.094;5.902;2023-03-19T08:16:03;13.15;77.47
67005;HTU21D;53920;51.094;5.902;2023-03-19T08:18:29;13.41;76.86
67005;HTU21D;53920;51.094;5.902;2023-03-19T08:20:56;13.70;75.74
67005;HTU21D;53920;51.094;5.902;2023-03-19T08:23:21;14.24;74.00
67005;HTU21D;53920;51.094;5.902;2023-03-19T08:25:47;14.66;72.45
67005;HTU21D;53920;51.094;5.902;2023-03-19T08:28:16;15.21;70.60
67005;HTU21D;53920;51.094;5.902;2023-03-19T08:30:42;15.46;69.15
67005;HTU21D;53920;51.094;5.902;2023-03-19T08:33:09;15.23;69.31
67005;HTU21D;53920;51.094;5.902;2023-03-19T08:35:35;15.25;68.95
67005;HTU21D;53920;51.094;5.902;2023-03-19T08:38:00;15.89;67.31
67005;HTU21D;53920;51.094;5.902;2023-03-19T08:40:26;16.39;65.62
67005;HTU21D;53920;51.094;5.902;2023-03-19T08:42:53;16.30;65.56
67005;HTU21D;53920;51.094;5.902;2023-03-19T08:45:21;17.19;63.14
67005;HTU21D;53920;51.094;5.902;2023-03-19T08:47:48;18.56;59.19
67005;HTU21D;53920;51.094;5.902;2023-03-19T08:50:15;20.19;54.86
67005;HTU21D;53920;51.094;5.902;2023-03-19T08:52:41;19.86;54.89
67005;HTU21D;53920;51.094;5.902;2023-03-19T08:55:08;19.55;54.96
67005;HTU21D;53920;51.094;5.902;2023-03-19T08:57:34;19.41;54.69
67005;HTU21D;53920;51.094;5.902;2023-03-19T09:00:01;19.03;55.30
67005;HTU21D;53920;51.094;5.902;2023-03-19T09:02:29;19.96;53.19
67005;HTU21D;53920;51.094;5.902;2023-03-19T09:04:54;20.74;50.59
67005;HTU21D;53920;51.094;5.902;2023-03-19T09:07:20;21.04;49.66
67005;HTU21D;53920;51.094;5.902;2023-03-19T09:09:48;20.85;49.00
67005;HTU21D;53920;51.094;5.902;2023-03-19T09:12:15;21.19;48.05
67005;HTU21D;53920;51.094;5.902;2023-03-19T09:14:42;22.22;45.58
67005;HTU21D;53920;51.094;5.902;2023-03-19T09:17:09;23.00;44.03
67005;HTU21D;53920;51.094;5.902;2023-03-19T09:19:37;23.71;41.46
67005;HTU21D;53920;51.094;5.902;2023-03-19T09:22:03;23.27;41.63
67005;HTU21D;53920;51.094;5.902;2023-03-19T09:24:29;21.98;44.41
67005;HTU21D;53920;51.094;5.902;2023-03-19T09:26:55;20.73;47.45
67005;HTU21D;53920;51.094;5.902;2023-03-19T09:29:21;20.81;47.01
67005;HTU21D;53920;51.094;5.902;2023-03-19T09:31:47;20.18;48.34
67005;HTU21D;53920;51.094;5.902;2023-03-19T09:34:13;19.79;48.96
67005;HTU21D;53920;51.094;5.902;2023-03-19T09:36:39;19.88;48.90
67005;HTU21D;53920;51.094;5.902;2023-03-19T09:39:06;21.59;44.28
67005;HTU21D;53920;51.094;5.902;2023-03-19T09:44:12;19.67;48.93
67005;HTU21D;53920;51.094;5.902;2023-03-19T09:46:57;19.44;50.24
67005;HTU21D;53920;51.094;5.902;2023-03-19T09:49:46;20.77;47.07
67005;HTU21D;53920;51.094;5.902;2023-03-19T09:52:48;23.18;41.57
67005;HTU21D;53920;51.094;5.902;2023-03-19T09:55:30;24.51;38.82
67005;HTU21D;53920;51.094;5.902;2023-03-19T09:57:59;25.02;37.68
67005;HTU21D;53920;51.094;5.902;2023-03-19T10:00:33;25.34;36.77
67005;HTU21D;53920;51.094;5.902;2023-03-19T10:03:02;26.45;34.53
67005;HTU21D;53920;51.094;5.902;2023-03-19T10:17:01;21.55;42.68
67005;HTU21D;53920;51.094;5.902;2023-03-19T10:22:16;22.51;41.60
67005;HTU21D;53920;51.094;5.902;2023-03-19T10:24:46;23.37;39.49
67005;HTU21D;53920;51.094;5.902;2023-03-19T10:27:16;23.31;39.09
67005;HTU21D;53920;51.094;5.902;2023-03-19T10:29:42;22.35;40.84
67005;HTU21D;53920;51.094;5.902;2023-03-19T10:34:43;21.52;42.19
67005;HTU21D;53920;51.094;5.902;2023-03-19T10:39:41;20.77;44.07
67005;HTU21D;53920;51.094;5.902;2023-03-19T10:44:59;20.02;45.80
67005;HTU21D;53920;51.094;5.902;2023-03-19T10:47:27;19.85;46.70
67005;HTU21D;53920;51.094;5.902;2023-03-19T10:49:55;19.79;46.76
67005;HTU21D;53920;51.094;5.902;2023-03-19T10:52:31;19.58;47.07
67005;HTU21D;53920;51.094;5.902;2023-03-19T10:55:14;19.47;47.58
67005;HTU21D;53920;51.094;5.902;2023-03-19T10:57:47;19.38;47.92
67005;HTU21D;53920;51.094;5.902;2023-03-19T11:00:17;19.35;48.18
67005;HTU21D;53920;51.094;5.902;2023-03-19T11:02:54;19.25;48.48
67005;HTU21D;53920;51.094;5.902;2023-03-19T11:08:01;19.08;48.76
67005;HTU21D;53920;51.094;5.902;2023-03-19T11:10:32;18.85;49.05
67005;HTU21D;53920;51.094;5.902;2023-03-19T11:13:05;18.66;49.22
67005;HTU21D;53920;51.094;5.902;2023-03-19T11:15:35;18.51;49.83
67005;HTU21D;53920;51.094;5.902;2023-03-19T11:18:18;18.62;49.90
67005;HTU21D;53920;51.094;5.902;2023-03-19T11:23:52;18.66;49.39
67005;HTU21D;53920;51.094;5.902;2023-03-19T11:26:23;18.74;49.26
67005;HTU21D;53920;51.094;5.902;2023-03-19T11:29:01;18.76;49.32
67005;HTU21D;53920;51.094;5.902;2023-03-19T11:31:37;18.71;49.38
67005;HTU21D;53920;51.094;5.902;2023-03-19T12:07:49;20.95;43.92
67005;HTU21D;53920;51.094;5.902;2023-03-19T12:13:24;18.99;49.11
67005;HTU21D;53920;51.094;5.902;2023-03-19T12:16:14;18.44;50.27
67005;HTU21D;53920;51.094;5.902;2023-03-19T12:27:21;23.44;39.50
67005;HTU21D;53920;51.094;5.902;2023-03-19T12:35:10;27.06;32.31
67005;HTU21D;53920;51.094;5.902;2023-03-19T12:40:28;22.94;39.78
67005;HTU21D;53920;51.094;5.902;2023-03-19T12:42:58;21.76;42.13
67005;HTU21D;53920;51.094;5.902;2023-03-19T12:45:31;20.55;44.38
67005;HTU21D;53920;51.094;5.902;2023-03-19T12:48:12;19.74;46.44
67005;HTU21D;53920;51.094;5.902;2023-03-19T12:50:45;19.36;47.83
67005;HTU21D;53920;51.094;5.902;2023-03-19T12:53:27;19.18;48.62
67005;HTU21D;53920;51.094;5.902;2023-03-19T12:56:05;18.86;49.66
67005;HTU21D;53920;51.094;5.902;2023-03-19T12:59:08;18.79;50.29
67005;HTU21D;53920;51.094;5.902;2023-03-19T13:01:45;18.97;49.95
67005;HTU21D;53920;51.094;5.902;2023-03-19T13:04:26;20.15;47.25
67005;HTU21D;53920;51.094;5.902;2023-03-19T13:07:07;19.97;47.39
67005;HTU21D;53920;51.094;5.902;2023-03-19T13:09:39;19.66;47.49
67005;HTU21D;53920;51.094;5.902;2023-03-19T13:12:17;19.31;48.40
67005;HTU21D;53920;51.094;5.902;2023-03-19T13:23:00;14.92;73.79
67005;HTU21D;53920;51.094;5.902;2023-03-19T13:25:37;14.91;75.44
67005;HTU21D;53920;51.094;5.902;2023-03-19T13:28:21;14.93;73.69
67005;HTU21D;53920;51.094;5.902;2023-03-19T13:31:03;14.86;72.44
67005;HTU21D;53920;51.094;5.902;2023-03-19T13:33:30;14.80;71.70
67005;HTU21D;53920;51.094;5.902;2023-03-19T13:36:01;14.82;72.83
67005;HTU21D;53920;51.094;5.902;2023-03-19T13:38:43;15.07;72.57
67005;HTU21D;53920;51.094;5.902;2023-03-19T13:44:27;14.79;70.40
67005;HTU21D;53920;51.094;5.902;2023-03-19T13:46:54;14.78;68.73
67005;HTU21D;53920;51.094;5.902;2023-03-19T13:49:29;14.73;69.29
67005;HTU21D;53920;51.094;5.902;2023-03-19T13:54:39;14.70;67.69
67005;HTU21D;53920;51.094;5.902;2023-03-19T13:57:17;14.56;67.07
67005;HTU21D;53920;51.094;5.902;2023-03-19T13:59:46;14.55;66.77
67005;HTU21D;53920;51.094;5.902;2023-03-19T14:07:24;14.64;66.11
67005;HTU21D;53920;51.094;5.902;2023-03-19T14:12:34;14.74;65.69
67005;HTU21D;53920;51.094;5.902;2023-03-19T14:15:22;14.86;65.76
67005;HTU21D;53920;51.094;5.902;2023-03-19T14:25:57;15.34;64.33
67005;HTU21D;53920;51.094;5.902;2023-03-19T14:28:51;15.39;64.01
67005;HTU21D;53920;51.094;5.902;2023-03-19T14:31:29;15.47;63.49
67005;HTU21D;53920;51.094;5.902;2023-03-19T14:34:13;15.58;63.02
67005;HTU21D;53920;51.094;5.902;2023-03-19T14:39:31;15.75;61.01
67005;HTU21D;53920;51.094;5.902;2023-03-19T14:42:06;15.86;61.20
67005;HTU21D;53920;51.094;5.902;2023-03-19T14:48:05;16.20;61.06
67005;HTU21D;53920;51.094;5.902;2023-03-19T14:50:59;16.32;59.99
67005;HTU21D;53920;51.094;5.902;2023-03-19T14:53:43;16.30;60.55
67005;HTU21D;53920;51.094;5.902;2023-03-19T14:56:26;16.31;59.90
67005;HTU21D;53920;51.094;5.902;2023-03-19T14:58:56;16.26;59.96
67005;HTU21D;53920;51.094;5.902;2023-03-19T15:01:26;16.24;59.77
67005;HTU21D;53920;51.094;5.902;2023-03-19T15:03:59;16.20;58.94
67005;HTU21D;53920;51.094;5.902;2023-03-19T15:06:33;16.32;59.80
67005;HTU21D;53920;51.094;5.902;2023-03-19T15:08:59;16.46;59.73
67005;HTU21D;53920;51.094;5.902;2023-03-19T15:17:19;16.47;57.20
67005;HTU21D;53920;51.094;5.902;2023-03-19T15:19:28;16.49;56.62
67005;HTU21D;53920;51.094;5.902;2023-03-19T15:22:13;16.40;56.18
67005;HTU21D;53920;51.094;5.902;2023-03-19T15:24:41;16.35;56.53
67005;HTU21D;53920;51.094;5.902;2023-03-19T15:27:25;16.24;56.52
67005;HTU21D;53920;51.094;5.902;2023-03-19T15:29:52;16.22;57.23
67005;HTU21D;53920;51.094;5.902;2023-03-19T15:32:33;16.20;59.13
67005;HTU21D;53920;51.094;5.902;2023-03-19T15:35:00;16.17;59.28
67005;HTU21D;53920;51.094;5.902;2023-03-19T15:37:29;16.14;59.28
67005;HTU21D;53920;51.094;5.902;2023-03-19T15:40:00;16.02;58.69
67005;HTU21D;53920;51.094;5.902;2023-03-19T15:42:29;15.95;58.74
67005;HTU21D;53920;51.094;5.902;2023-03-19T15:45:08;15.87;57.98
67005;HTU21D;53920;51.094;5.902;2023-03-19T15:47:40;15.78;57.74
67005;HTU21D;53920;51.094;5.902;2023-03-19T15:50:15;15.71;58.70
67005;HTU21D;53920;51.094;5.902;2023-03-19T15:52:49;15.69;58.55
67005;HTU21D;53920;51.094;5.902;2023-03-19T15:55:17;15.68;59.70
67005;HTU21D;53920;51.094;5.902;2023-03-19T15:57:46;15.70;60.79
67005;HTU21D;53920;51.094;5.902;2023-03-19T16:00:14;15.69;60.58
67005;HTU21D;53920;51.094;5.902;2023-03-19T16:02:42;15.65;60.65
67005;HTU21D;53920;51.094;5.902;2023-03-19T16:05:29;15.65;60.94
67005;HTU21D;53920;51.094;5.902;2023-03-19T16:07:59;15.58;61.07
67005;HTU21D;53920;51.094;5.902;2023-03-19T16:12:59;15.46;62.64
67005;HTU21D;53920;51.094;5.902;2023-03-19T16:15:35;15.43;62.81
67005;HTU21D;53920;51.094;5.902;2023-03-19T16:18:29;15.33;63.05
67005;HTU21D;53920;51.094;5.902;2023-03-19T16:21:43;15.31;63.47
67005;HTU21D;53920;51.094;5.902;2023-03-19T16:23:58;15.30;63.92
67005;HTU21D;53920;51.094;5.902;2023-03-19T16:26:36;15.32;64.36
67005;HTU21D;53920;51.094;5.902;2023-03-19T16:29:19;15.30;64.81
67005;HTU21D;53920;51.094;5.902;2023-03-19T16:31:50;15.33;65.18
67005;HTU21D;53920;51.094;5.902;2023-03-19T16:37:42;15.29;64.76
67005;HTU21D;53920;51.094;5.902;2023-03-19T16:42:41;15.32;64.47
67005;HTU21D;53920;51.094;5.902;2023-03-19T16:47:49;15.32;64.30
67005;HTU21D;53920;51.094;5.902;2023-03-19T16:50:18;15.31;64.21
67005;HTU21D;53920;51.094;5.902;2023-03-19T16:52:46;15.33;64.00
67005;HTU21D;53920;51.094;5.902;2023-03-19T16:55:22;15.38;64.08
67005;HTU21D;53920;51.094;5.902;2023-03-19T16:58:10;15.40;64.00
67005;HTU21D;53920;51.094;5.902;2023-03-19T17:00:37;15.40;63.76
67005;HTU21D;53920;51.094;5.902;2023-03-19T17:03:12;15.40;63.96
67005;HTU21D;53920;51.094;5.902;2023-03-19T17:05:38;15.37;64.05
67005;HTU21D;53920;51.094;5.902;2023-03-19T17:08:04;15.34;64.79
67005;HTU21D;53920;51.094;5.902;2023-03-19T17:10:30;15.32;64.97
67005;HTU21D;53920;51.094;5.902;2023-03-19T17:12:59;15.25;65.40
67005;HTU21D;53920;51.094;5.902;2023-03-19T17:15:36;15.19;65.79
67005;HTU21D;53920;51.094;5.902;2023-03-19T17:18:13;15.02;66.01
67005;HTU21D;53920;51.094;5.902;2023-03-19T17:20:52;14.82;66.48
67005;HTU21D;53920;51.094;5.902;2023-03-19T17:23:19;14.70;66.75
67005;HTU21D;53920;51.094;5.902;2023-03-19T17:25:50;14.69;67.49
67005;HTU21D;53920;51.094;5.902;2023-03-19T17:28:16;14.66;67.36
67005;HTU21D;53920;51.094;5.902;2023-03-19T17:30:42;14.67;67.65
67005;HTU21D;53920;51.094;5.902;2023-03-19T17:33:21;14.71;67.70
67005;HTU21D;53920;51.094;5.902;2023-03-19T17:35:49;14.73;67.75
67005;HTU21D;53920;51.094;5.902;2023-03-19T17:38:17;14.77;67.51
67005;HTU21D;53920;51.094;5.902;2023-03-19T17:40:44;14.79;67.47
67005;HTU21D;53920;51.094;5.902;2023-03-19T17:43:11;14.83;67.81
67005;HTU21D;53920;51.094;5.902;2023-03-19T17:45:41;14.84;67.99
67005;HTU21D;53920;51.094;5.902;2023-03-19T17:48:20;14.80;67.55
67005;HTU21D;53920;51.094;5.902;2023-03-19T17:50:49;14.69;66.77
67005;HTU21D;53920;51.094;5.902;2023-03-19T17:53:16;14.56;66.74
67005;HTU21D;53920;51.094;5.902;2023-03-19T17:55:45;14.44;66.78
67005;HTU21D;53920;51.094;5.902;2023-03-19T17:58:20;14.38;66.87
67005;HTU21D;53920;51.094;5.902;2023-03-19T18:00:49;14.22;66.94
67005;HTU21D;53920;51.094;5.902;2023-03-19T18:03:18;14.11;67.01
67005;HTU21D;53920;51.094;5.902;2023-03-19T18:05:45;14.01;67.27